sensor_id;sensor_type;location;lat;lon;timestamp;P1;durP1;ratioP1;P2;durP2;ratioP2
78312;SDS011;67568;47.438;21.408;2023-03-20T00:01:45;49.63;;;27.20;;
78312;SDS011;67568;47.438;21.408;2023-03-20T00:04:14;48.35;;;24.42;;
78312;SDS011;67568;47.438;21.408;2023-03-20T00:06:40;45.15;;;23.77;;
78312;SDS011;67568;47.438;21.408;2023-03-20T00:09:07;46.33;;;24.85;;
78312;SDS011;67568;47.438;21.408;2023-03-20T00:11:34;41.47;;;22.98;;
78312;SDS011;67568;47.438;21.408;2023-03-20T00:14:05;36.67;;;21.87;;
78312;SDS011;67568;47.438;21.408;2023-03-20T00:16:39;39.17;;;22.52;;
78312;SDS011;67568;47.438;21.408;2023-03-20T00:21:48;38.00;;;20.23;;
78312;SDS011;67568;47.438;21.408;2023-03-20T00:24:15;34.45;;;19.40;;
78312;SDS011;67568;47.438;21.408;2023-03-20T00:26:43;35.90;;;20.00;;
78312;SDS011;67568;47.438;21.408;2023-03-20T00:29:14;31.27;;;18.65;;
78312;SDS011;67568;47.438;21.408;2023-03-20T00:31:53;36.92;;;18.98;;
78312;SDS011;67568;47.438;21.408;2023-03-20T00:34:21;34.67;;;18.80;;
78312;SDS011;67568;47.438;21.408;2023-03-20T00:36:50;33.92;;;17.73;;
78312;SDS011;67568;47.438;21.408;2023-03-20T00:39:17;33.10;;;17.40;;
78312;SDS011;67568;47.438;21.408;2023-03-20T00:41:50;30.98;;;16.80;;
78312;SDS011;67568;47.438;21.408;2023-03-20T00:44:23;33.67;;;17.63;;
78312;SDS011;67568;47.438;21.408;2023-03-20T00:47:03;28.50;;;16.45;;
78312;SDS011;67568;47.438;21.408;2023-03-20T00:49:37;30.17;;;16.83;;
78312;SDS011;67568;47.438;21.408;2023-03-20T00:52:04;28.77;;;16.73;;
78312;SDS011;67568;47.438;21.408;2023-03-20T00:54:31;29.92;;;16.42;;
78312;SDS011;67568;47.438;21.408;2023-03-20T00:56:58;28.77;;;16.00;;
78312;SDS011;67568;47.438;21.408;2023-03-20T00:59:29;30.25;;;17.35;;
78312;SDS011;67568;47.438;21.408;2023-03-20T01:01:59;30.55;;;16.73;;
78312;SDS011;67568;47.438;21.408;2023-03-20T01:04:31;30.53;;;16.80;;
78312;SDS011;67568;47.438;21.408;2023-03-20T01:07:01;28.10;;;16.42;;
78312;SDS011;67568;47.438;21.408;2023-03-20T01:09:28;32.65;;;16.58;;
78312;SDS011;67568;47.438;21.408;2023-03-20T01:11:55;33.97;;;16.00;;
78312;SDS011;67568;47.438;21.408;2023-03-20T01:14:24;29.15;;;16.42;;
78312;SDS011;67568;47.438;21.408;2023-03-20T01:16:51;28.20;;;16.13;;
78312;SDS011;67568;47.438;21.408;2023-03-20T01:19:18;29.02;;;16.10;;
78312;SDS011;67568;47.438;21.408;2023-03-20T01:21:44;30.52;;;16.00;;
78312;SDS011;67568;47.438;21.408;2023-03-20T01:24:13;31.05;;;16.02;;
78312;SDS011;67568;47.438;21.408;2023-03-20T01:26:40;29.35;;;16.95;;
78312;SDS011;67568;47.438;21.408;2023-03-20T01:31:46;32.25;;;18.20;;
78312;SDS011;67568;47.438;21.408;2023-03-20T01:34:13;29.73;;;16.80;;
78312;SDS011;67568;47.438;21.408;2023-03-20T01:36:47;27.77;;;15.68;;
78312;SDS011;67568;47.438;21.408;2023-03-20T01:39:19;34.78;;;16.13;;
78312;SDS011;67568;47.438;21.408;2023-03-20T01:41:47;29.17;;;16.47;;
78312;SDS011;67568;47.438;21.408;2023-03-20T01:44:22;28.55;;;15.05;;
78312;SDS011;67568;47.438;21.408;2023-03-20T01:46:50;28.92;;;15.57;;
78312;SDS011;67568;47.438;21.408;2023-03-20T01:51:45;28.55;;;15.57;;
78312;SDS011;67568;47.438;21.408;2023-03-20T01:54:34;26.17;;;15.10;;
78312;SDS011;67568;47.438;21.408;2023-03-20T01:57:16;32.05;;;15.23;;
78312;SDS011;67568;47.438;21.408;2023-03-20T01:59:46;31.60;;;15.52;;
78312;SDS011;67568;47.438;21.408;2023-03-20T02:02:18;28.58;;;15.98;;
78312;SDS011;67568;47.438;21.408;2023-03-20T02:04:51;27.77;;;15.65;;
78312;SDS011;67568;47.438;21.408;2023-03-20T02:07:23;26.87;;;15.20;;
78312;SDS011;67568;47.438;21.408;2023-03-20T02:09:49;26.17;;;14.57;;
78312;SDS011;67568;47.438;21.408;2023-03-20T02:12:17;26.77;;;14.90;;
78312;SDS011;67568;47.438;21.408;2023-03-20T02:14:46;30.05;;;15.38;;
78312;SDS011;67568;47.438;21.408;2023-03-20T02:17:14;31.33;;;16.83;;
78312;SDS011;67568;47.438;21.408;2023-03-20T02:28:34;42.33;;;22.13;;
78312;SDS011;67568;47.438;21.408;2023-03-20T02:37:42;28.23;;;15.63;;
78312;SDS011;67568;47.438;21.408;2023-03-20T02:40:19;27.33;;;15.05;;
78312;SDS011;67568;47.438;21.408;2023-03-20T02:43:08;30.00;;;16.67;;
78312;SDS011;67568;47.438;21.408;2023-03-20T02:48:36;32.17;;;16.00;;
78312;SDS011;67568;47.438;21.408;2023-03-20T02:51:45;29.17;;;15.05;;
78312;SDS011;67568;47.438;21.408;2023-03-20T02:54:42;37.42;;;18.88;;
78312;SDS011;67568;47.438;21.408;2023-03-20T02:57:18;49.90;;;23.23;;
78312;SDS011;67568;47.438;21.408;2023-03-20T02:59:57;61.95;;;25.38;;
78312;SDS011;67568;47.438;21.408;2023-03-20T03:02:33;54.47;;;23.70;;
78312;SDS011;67568;47.438;21.408;2023-03-20T03:05:07;85.03;;;32.63;;
78312;SDS011;67568;47.438;21.408;2023-03-20T03:07:41;92.18;;;35.28;;
78312;SDS011;67568;47.438;21.408;2023-03-20T03:10:11;40.88;;;19.23;;
78312;SDS011;67568;47.438;21.408;2023-03-20T03:12:45;30.35;;;15.75;;
78312;SDS011;67568;47.438;21.408;2023-03-20T03:15:18;27.33;;;15.73;;
78312;SDS011;67568;47.438;21.408;2023-03-20T03:17:52;31.90;;;16.02;;
78312;SDS011;67568;47.438;21.408;2023-03-20T03:20:22;33.33;;;16.10;;
78312;SDS011;67568;47.438;21.408;2023-03-20T03:22:53;35.28;;;16.35;;
78312;SDS011;67568;47.438;21.408;2023-03-20T03:25:20;28.23;;;15.43;;
78312;SDS011;67568;47.438;21.408;2023-03-20T03:31:05;27.60;;;15.38;;
78312;SDS011;67568;47.438;21.408;2023-03-20T03:33:38;31.63;;;15.98;;
78312;SDS011;67568;47.438;21.408;2023-03-20T03:36:21;32.63;;;17.00;;
78312;SDS011;67568;47.438;21.408;2023-03-20T03:39:10;29.00;;;15.07;;
78312;SDS011;67568;47.438;21.408;2023-03-20T03:42:29;32.37;;;15.17;;
78312;SDS011;67568;47.438;21.408;2023-03-20T03:44:58;26.33;;;13.90;;
78312;SDS011;67568;47.438;21.408;2023-03-20T03:47:42;25.13;;;14.60;;
78312;SDS011;67568;47.438;21.408;2023-03-20T03:50:16;32.70;;;15.05;;
78312;SDS011;67568;47.438;21.408;2023-03-20T03:52:48;29.63;;;14.75;;
78312;SDS011;67568;47.438;21.408;2023-03-20T03:55:21;24.77;;;13.70;;
78312;SDS011;67568;47.438;21.408;2023-03-20T03:57:52;27.60;;;13.82;;
78312;SDS011;67568;47.438;21.408;2023-03-20T04:00:25;23.50;;;13.50;;
78312;SDS011;67568;47.438;21.408;2023-03-20T04:02:59;25.42;;;13.95;;
78312;SDS011;67568;47.438;21.408;2023-03-20T04:05:27;24.40;;;13.43;;
78312;SDS011;67568;47.438;21.408;2023-03-20T04:07:57;25.13;;;14.03;;
78312;SDS011;67568;47.438;21.408;2023-03-20T04:10:26;30.05;;;16.42;;
78312;SDS011;67568;47.438;21.408;2023-03-20T04:12:53;28.13;;;16.50;;
78312;SDS011;67568;47.438;21.408;2023-03-20T04:15:19;24.65;;;14.23;;
78312;SDS011;67568;47.438;21.408;2023-03-20T04:17:46;27.38;;;14.25;;
78312;SDS011;67568;47.438;21.408;2023-03-20T04:20:13;31.13;;;15.53;;
78312;SDS011;67568;47.438;21.408;2023-03-20T04:22:43;37.95;;;18.77;;
78312;SDS011;67568;47.438;21.408;2023-03-20T04:25:17;33.78;;;19.30;;
78312;SDS011;67568;47.438;21.408;2023-03-20T04:27:46;32.90;;;17.30;;
78312;SDS011;67568;47.438;21.408;2023-03-20T04:30:13;28.73;;;15.82;;
78312;SDS011;67568;47.438;21.408;2023-03-20T04:32:39;32.23;;;16.30;;
78312;SDS011;67568;47.438;21.408;2023-03-20T04:35:06;29.92;;;16.00;;
78312;SDS011;67568;47.438;21.408;2023-03-20T04:37:33;27.77;;;15.23;;
78312;SDS011;67568;47.438;21.408;2023-03-20T04:40:00;28.25;;;14.43;;
78312;SDS011;67568;47.438;21.408;2023-03-20T04:42:27;29.10;;;15.63;;
78312;SDS011;67568;47.438;21.408;2023-03-20T04:44:53;28.97;;;15.60;;
78312;SDS011;67568;47.438;21.408;2023-03-20T04:47:20;25.33;;;13.85;;
78312;SDS011;67568;47.438;21.408;2023-03-20T04:49:46;29.95;;;15.23;;
78312;SDS011;67568;47.438;21.408;2023-03-20T04:52:13;33.85;;;15.88;;
78312;SDS011;67568;47.438;21.408;2023-03-20T04:54:40;29.33;;;16.40;;
78312;SDS011;67568;47.438;21.408;2023-03-20T04:57:06;30.90;;;15.70;;
78312;SDS011;67568;47.438;21.408;2023-03-20T04:59:33;29.58;;;15.70;;
78312;SDS011;67568;47.438;21.408;2023-03-20T05:02:01;31.42;;;16.08;;
78312;SDS011;67568;47.438;21.408;2023-03-20T05:04:27;26.05;;;13.82;;
78312;SDS011;67568;47.438;21.408;2023-03-20T05:06:54;24.13;;;13.02;;
78312;SDS011;67568;47.438;21.408;2023-03-20T05:09:21;23.77;;;13.10;;
78312;SDS011;67568;47.438;21.408;2023-03-20T05:11:47;22.10;;;12.05;;
78312;SDS011;67568;47.438;21.408;2023-03-20T05:14:14;22.90;;;12.05;;
78312;SDS011;67568;47.438;21.408;2023-03-20T05:16:43;23.30;;;12.02;;
78312;SDS011;67568;47.438;21.408;2023-03-20T05:19:09;22.17;;;12.13;;
78312;SDS011;67568;47.438;21.408;2023-03-20T05:21:36;22.57;;;11.77;;
78312;SDS011;67568;47.438;21.408;2023-03-20T05:24:05;23.25;;;12.18;;
78312;SDS011;67568;47.438;21.408;2023-03-20T05:26:32;22.63;;;12.35;;
78312;SDS011;67568;47.438;21.408;2023-03-20T05:29:00;24.92;;;13.40;;
78312;SDS011;67568;47.438;21.408;2023-03-20T05:31:27;26.30;;;14.57;;
78312;SDS011;67568;47.438;21.408;2023-03-20T05:33:56;26.00;;;13.83;;
78312;SDS011;67568;47.438;21.408;2023-03-20T05:36:23;23.58;;;12.55;;
78312;SDS011;67568;47.438;21.408;2023-03-20T05:38:49;22.52;;;11.93;;
78312;SDS011;67568;47.438;21.408;2023-03-20T05:41:16;22.90;;;12.30;;
78312;SDS011;67568;47.438;21.408;2023-03-20T05:43:42;22.73;;;11.65;;
78312;SDS011;67568;47.438;21.408;2023-03-20T05:46:09;27.03;;;12.67;;
78312;SDS011;67568;47.438;21.408;2023-03-20T05:48:38;24.02;;;12.60;;
78312;SDS011;67568;47.438;21.408;2023-03-20T05:51:05;24.98;;;12.82;;
78312;SDS011;67568;47.438;21.408;2023-03-20T05:53:35;25.38;;;13.48;;
78312;SDS011;67568;47.438;21.408;2023-03-20T05:56:02;34.78;;;14.88;;
78312;SDS011;67568;47.438;21.408;2023-03-20T05:58:28;32.33;;;15.20;;
78312;SDS011;67568;47.438;21.408;2023-03-20T06:00:56;28.75;;;15.10;;
78312;SDS011;67568;47.438;21.408;2023-03-20T06:03:23;26.13;;;15.07;;
78312;SDS011;67568;47.438;21.408;2023-03-20T06:05:50;28.27;;;15.82;;
78312;SDS011;67568;47.438;21.408;2023-03-20T06:08:16;21.63;;;11.55;;
78312;SDS011;67568;47.438;21.408;2023-03-20T06:10:43;21.77;;;10.63;;
78312;SDS011;67568;47.438;21.408;2023-03-20T06:13:10;21.25;;;10.35;;
78312;SDS011;67568;47.438;21.408;2023-03-20T06:15:39;22.35;;;11.77;;
78312;SDS011;67568;47.438;21.408;2023-03-20T06:18:06;21.52;;;12.52;;
78312;SDS011;67568;47.438;21.408;2023-03-20T06:20:32;21.17;;;11.98;;
78312;SDS011;67568;47.438;21.408;2023-03-20T06:22:59;19.90;;;11.13;;
78312;SDS011;67568;47.438;21.408;2023-03-20T06:25:26;22.27;;;10.35;;
78312;SDS011;67568;47.438;21.408;2023-03-20T06:27:52;18.98;;;10.73;;
78312;SDS011;67568;47.438;21.408;2023-03-20T06:30:20;21.88;;;10.98;;
78312;SDS011;67568;47.438;21.408;2023-03-20T06:32:47;19.38;;;10.38;;
78312;SDS011;67568;47.438;21.408;2023-03-20T06:35:16;18.87;;;10.50;;
78312;SDS011;67568;47.438;21.408;2023-03-20T06:37:52;18.08;;;9.25;;
78312;SDS011;67568;47.438;21.408;2023-03-20T06:40:19;19.17;;;9.63;;
78312;SDS011;67568;47.438;21.408;2023-03-20T06:42:45;23.65;;;9.95;;
78312;SDS011;67568;47.438;21.408;2023-03-20T06:45:12;20.40;;;9.73;;
78312;SDS011;67568;47.438;21.408;2023-03-20T06:47:39;17.97;;;9.90;;
78312;SDS011;67568;47.438;21.408;2023-03-20T06:50:08;23.40;;;9.52;;
78312;SDS011;67568;47.438;21.408;2023-03-20T06:52:39;23.05;;;10.13;;
78312;SDS011;67568;47.438;21.408;2023-03-20T06:55:06;19.65;;;9.68;;
78312;SDS011;67568;47.438;21.408;2023-03-20T06:57:34;17.75;;;9.18;;
78312;SDS011;67568;47.438;21.408;2023-03-20T07:00:01;18.70;;;9.43;;
78312;SDS011;67568;47.438;21.408;2023-03-20T07:02:31;19.50;;;9.38;;
78312;SDS011;67568;47.438;21.408;2023-03-20T07:04:59;16.40;;;8.77;;
78312;SDS011;67568;47.438;21.408;2023-03-20T07:07:26;17.45;;;8.32;;
78312;SDS011;67568;47.438;21.408;2023-03-20T07:09:53;16.58;;;8.57;;
78312;SDS011;67568;47.438;21.408;2023-03-20T07:12:20;18.77;;;8.20;;
78312;SDS011;67568;47.438;21.408;2023-03-20T07:14:47;18.58;;;9.63;;
78312;SDS011;67568;47.438;21.408;2023-03-20T07:17:13;18.25;;;8.85;;
78312;SDS011;67568;47.438;21.408;2023-03-20T07:19:40;20.67;;;10.57;;
78312;SDS011;67568;47.438;21.408;2023-03-20T07:22:07;16.15;;;8.45;;
78312;SDS011;67568;47.438;21.408;2023-03-20T07:24:42;18.40;;;8.60;;
78312;SDS011;67568;47.438;21.408;2023-03-20T07:27:12;20.95;;;9.07;;
78312;SDS011;67568;47.438;21.408;2023-03-20T07:29:39;17.23;;;8.60;;
78312;SDS011;67568;47.438;21.408;2023-03-20T07:32:05;19.35;;;8.45;;
78312;SDS011;67568;47.438;21.408;2023-03-20T07:34:32;19.85;;;8.27;;
78312;SDS011;67568;47.438;21.408;2023-03-20T07:36:59;17.23;;;8.53;;
78312;SDS011;67568;47.438;21.408;2023-03-20T07:39:26;16.15;;;7.90;;
78312;SDS011;67568;47.438;21.408;2023-03-20T07:41:52;18.80;;;9.68;;
78312;SDS011;67568;47.438;21.408;2023-03-20T07:44:22;16.42;;;8.25;;
78312;SDS011;67568;47.438;21.408;2023-03-20T07:46:52;18.02;;;8.32;;
78312;SDS011;67568;47.438;21.408;2023-03-20T07:49:19;16.43;;;8.27;;
78312;SDS011;67568;47.438;21.408;2023-03-20T07:51:46;17.55;;;8.52;;
78312;SDS011;67568;47.438;21.408;2023-03-20T07:54:15;16.70;;;8.65;;
78312;SDS011;67568;47.438;21.408;2023-03-20T07:56:42;18.38;;;8.90;;
78312;SDS011;67568;47.438;21.408;2023-03-20T07:59:11;15.38;;;8.13;;
78312;SDS011;67568;47.438;21.408;2023-03-20T08:01:38;15.13;;;8.83;;
78312;SDS011;67568;47.438;21.408;2023-03-20T08:04:12;17.23;;;9.27;;
78312;SDS011;67568;47.438;21.408;2023-03-20T08:06:39;15.85;;;9.45;;
78312;SDS011;67568;47.438;21.408;2023-03-20T08:09:06;15.82;;;8.75;;
78312;SDS011;67568;47.438;21.408;2023-03-20T08:11:38;16.10;;;8.52;;
78312;SDS011;67568;47.438;21.408;2023-03-20T08:14:05;14.77;;;7.80;;
78312;SDS011;67568;47.438;21.408;2023-03-20T08:16:34;14.95;;;7.90;;
78312;SDS011;67568;47.438;21.408;2023-03-20T08:19:04;16.65;;;8.05;;
78312;SDS011;67568;47.438;21.408;2023-03-20T08:21:37;17.52;;;7.93;;
78312;SDS011;67568;47.438;21.408;2023-03-20T08:24:12;13.75;;;7.78;;
78312;SDS011;67568;47.438;21.408;2023-03-20T08:26:45;14.50;;;7.33;;
78312;SDS011;67568;47.438;21.408;2023-03-20T08:29:12;15.07;;;7.63;;
78312;SDS011;67568;47.438;21.408;2023-03-20T08:31:44;14.05;;;7.45;;
78312;SDS011;67568;47.438;21.408;2023-03-20T08:34:11;12.70;;;7.57;;
78312;SDS011;67568;47.438;21.408;2023-03-20T08:36:38;20.35;;;8.95;;
78312;SDS011;67568;47.438;21.408;2023-03-20T08:39:08;16.43;;;7.40;;
78312;SDS011;67568;47.438;21.408;2023-03-20T08:41:41;14.23;;;7.47;;
78312;SDS011;67568;47.438;21.408;2023-03-20T08:44:08;14.20;;;8.05;;
78312;SDS011;67568;47.438;21.408;2023-03-20T08:47:01;15.40;;;7.68;;
78312;SDS011;67568;47.438;21.408;2023-03-20T08:49:30;15.95;;;8.27;;
78312;SDS011;67568;47.438;21.408;2023-03-20T08:52:03;14.03;;;7.90;;
78312;SDS011;67568;47.438;21.408;2023-03-20T08:54:30;13.15;;;8.00;;
78312;SDS011;67568;47.438;21.408;2023-03-20T08:56:57;17.40;;;9.30;;
78312;SDS011;67568;47.438;21.408;2023-03-20T08:59:26;17.00;;;8.88;;
78312;SDS011;67568;47.438;21.408;2023-03-20T09:01:55;15.15;;;8.52;;
78312;SDS011;67568;47.438;21.408;2023-03-20T09:04:23;17.67;;;9.20;;
78312;SDS011;67568;47.438;21.408;2023-03-20T09:06:52;17.25;;;8.27;;
78312;SDS011;67568;47.438;21.408;2023-03-20T09:09:19;16.75;;;8.45;;
78312;SDS011;67568;47.438;21.408;2023-03-20T09:11:47;15.95;;;8.43;;
78312;SDS011;67568;47.438;21.408;2023-03-20T09:14:14;19.40;;;9.10;;
78312;SDS011;67568;47.438;21.408;2023-03-20T09:16:41;14.30;;;8.73;;
78312;SDS011;67568;47.438;21.408;2023-03-20T09:19:07;16.70;;;8.70;;
78312;SDS011;67568;47.438;21.408;2023-03-20T09:21:36;15.00;;;9.10;;
78312;SDS011;67568;47.438;21.408;2023-03-20T09:24:06;16.92;;;8.95;;
78312;SDS011;67568;47.438;21.408;2023-03-20T09:26:36;16.88;;;9.15;;
78312;SDS011;67568;47.438;21.408;2023-03-20T09:29:04;16.63;;;9.00;;
78312;SDS011;67568;47.438;21.408;2023-03-20T09:31:32;15.57;;;8.70;;
78312;SDS011;67568;47.438;21.408;2023-03-20T09:33:59;14.60;;;8.73;;
78312;SDS011;67568;47.438;21.408;2023-03-20T09:36:29;17.13;;;9.25;;
78312;SDS011;67568;47.438;21.408;2023-03-20T09:38:57;14.77;;;8.82;;
78312;SDS011;67568;47.438;21.408;2023-03-20T09:41:25;16.57;;;9.63;;
78312;SDS011;67568;47.438;21.408;2023-03-20T09:44:05;17.90;;;9.88;;
78312;SDS011;67568;47.438;21.408;2023-03-20T09:52:36;18.95;;;8.85;;
78312;SDS011;67568;47.438;21.408;2023-03-20T09:55:12;17.57;;;9.20;;
78312;SDS011;67568;47.438;21.408;2023-03-20T09:57:42;14.77;;;8.60;;
78312;SDS011;67568;47.438;21.408;2023-03-20T10:00:14;16.65;;;8.90;;
78312;SDS011;67568;47.438;21.408;2023-03-20T10:05:28;17.92;;;8.13;;
78312;SDS011;67568;47.438;21.408;2023-03-20T10:07:58;14.40;;;8.37;;
78312;SDS011;67568;47.438;21.408;2023-03-20T10:10:41;14.25;;;8.35;;
78312;SDS011;67568;47.438;21.408;2023-03-20T10:13:50;15.73;;;8.25;;
78312;SDS011;67568;47.438;21.408;2023-03-20T10:19:23;14.23;;;8.05;;
78312;SDS011;67568;47.438;21.408;2023-03-20T10:22:13;16.70;;;8.53;;
78312;SDS011;67568;47.438;21.408;2023-03-20T10:28:00;17.92;;;7.65;;
78312;SDS011;67568;47.438;21.408;2023-03-20T10:39:50;13.27;;;6.65;;
78312;SDS011;67568;47.438;21.408;2023-03-20T10:42:26;13.43;;;7.40;;
78312;SDS011;67568;47.438;21.408;2023-03-20T10:45:05;11.77;;;7.15;;
78312;SDS011;67568;47.438;21.408;2023-03-20T10:47:39;11.63;;;6.00;;
78312;SDS011;67568;47.438;21.408;2023-03-20T10:50:17;13.87;;;6.37;;
78312;SDS011;67568;47.438;21.408;2023-03-20T10:52:48;12.52;;;6.20;;
78312;SDS011;67568;47.438;21.408;2023-03-20T10:55:26;13.10;;;6.20;;
78312;SDS011;67568;47.438;21.408;2023-03-20T10:58:20;11.07;;;5.65;;
78312;SDS011;67568;47.438;21.408;2023-03-20T11:00:48;10.82;;;5.30;;
78312;SDS011;67568;47.438;21.408;2023-03-20T11:03:22;10.87;;;6.13;;
78312;SDS011;67568;47.438;21.408;2023-03-20T11:08:39;10.50;;;4.93;;
78312;SDS011;67568;47.438;21.408;2023-03-20T11:11:07;10.00;;;5.30;;
78312;SDS011;67568;47.438;21.408;2023-03-20T11:13:36;11.65;;;5.70;;
78312;SDS011;67568;47.438;21.408;2023-03-20T11:16:52;11.90;;;5.63;;
78312;SDS011;67568;47.438;21.408;2023-03-20T11:18:57;11.75;;;4.93;;
78312;SDS011;67568;47.438;21.408;2023-03-20T11:21:31;9.38;;;4.97;;
78312;SDS011;67568;47.438;21.408;2023-03-20T11:24:00;10.50;;;5.13;;
78312;SDS011;67568;47.438;21.408;2023-03-20T11:26:37;8.25;;;4.38;;
78312;SDS011;67568;47.438;21.408;2023-03-20T11:29:06;9.37;;;4.60;;
78312;SDS011;67568;47.438;21.408;2023-03-20T11:31:51;11.15;;;4.97;;
78312;SDS011;67568;47.438;21.408;2023-03-20T11:36:46;14.32;;;4.57;;
78312;SDS011;67568;47.438;21.408;2023-03-20T11:39:35;9.35;;;4.28;;
78312;SDS011;67568;47.438;21.408;2023-03-20T11:42:02;9.53;;;4.00;;
78312;SDS011;67568;47.438;21.408;2023-03-20T11:44:29;10.57;;;4.40;;
78312;SDS011;67568;47.438;21.408;2023-03-20T11:49:45;8.57;;;4.00;;
78312;SDS011;67568;47.438;21.408;2023-03-20T11:52:26;10.45;;;3.97;;
78312;SDS011;67568;47.438;21.408;2023-03-20T11:54:59;10.13;;;3.70;;
78312;SDS011;67568;47.438;21.408;2023-03-20T11:57:37;10.38;;;4.10;;
78312;SDS011;67568;47.438;21.408;2023-03-20T12:00:16;8.43;;;3.72;;
78312;SDS011;67568;47.438;21.408;2023-03-20T12:02:49;8.40;;;3.80;;
78312;SDS011;67568;47.438;21.408;2023-03-20T12:05:27;9.48;;;3.80;;
78312;SDS011;67568;47.438;21.408;2023-03-20T12:08:32;11.63;;;4.30;;
78312;SDS011;67568;47.438;21.408;2023-03-20T12:10:53;8.20;;;3.50;;
78312;SDS011;67568;47.438;21.408;2023-03-20T12:13:26;8.00;;;3.78;;
78312;SDS011;67568;47.438;21.408;2023-03-20T12:15:58;8.55;;;3.20;;
78312;SDS011;67568;47.438;21.408;2023-03-20T12:18:32;7.95;;;3.67;;
78312;SDS011;67568;47.438;21.408;2023-03-20T12:23:41;9.63;;;3.70;;
78312;SDS011;67568;47.438;21.408;2023-03-20T12:26:20;10.45;;;3.60;;
78312;SDS011;67568;47.438;21.408;2023-03-20T12:29:19;12.90;;;4.05;;
78312;SDS011;67568;47.438;21.408;2023-03-20T12:31:51;11.98;;;3.97;;
78312;SDS011;67568;47.438;21.408;2023-03-20T12:34:30;8.30;;;3.60;;
78312;SDS011;67568;47.438;21.408;2023-03-20T12:36:59;8.18;;;3.28;;
78312;SDS011;67568;47.438;21.408;2023-03-20T12:39:33;11.32;;;3.58;;
78312;SDS011;67568;47.438;21.408;2023-03-20T12:44:54;7.28;;;3.03;;
78312;SDS011;67568;47.438;21.408;2023-03-20T12:47:29;9.17;;;3.00;;
78312;SDS011;67568;47.438;21.408;2023-03-20T12:58:57;8.25;;;3.65;;
78312;SDS011;67568;47.438;21.408;2023-03-20T13:01:32;8.87;;;3.50;;
78312;SDS011;67568;47.438;21.408;2023-03-20T13:15:19;12.43;;;3.93;;
78312;SDS011;67568;47.438;21.408;2023-03-20T13:20:25;9.23;;;3.60;;
78312;SDS011;67568;47.438;21.408;2023-03-20T13:28:13;8.37;;;3.37;;
78312;SDS011;67568;47.438;21.408;2023-03-20T13:38:34;13.15;;;4.28;;
78312;SDS011;67568;47.438;21.408;2023-03-20T13:41:06;10.63;;;4.00;;
78312;SDS011;67568;47.438;21.408;2023-03-20T13:43:41;8.50;;;4.00;;
78312;SDS011;67568;47.438;21.408;2023-03-20T13:48:45;12.98;;;4.65;;
78312;SDS011;67568;47.438;21.408;2023-03-20T13:54:32;10.50;;;4.37;;
78312;SDS011;67568;47.438;21.408;2023-03-20T14:05:08;8.40;;;3.80;;
78312;SDS011;67568;47.438;21.408;2023-03-20T14:07:41;11.07;;;4.20;;
78312;SDS011;67568;47.438;21.408;2023-03-20T14:12:49;11.88;;;5.10;;
78312;SDS011;67568;47.438;21.408;2023-03-20T14:15:29;12.35;;;4.30;;
78312;SDS011;67568;47.438;21.408;2023-03-20T14:18:04;8.77;;;3.30;;
78312;SDS011;67568;47.438;21.408;2023-03-20T14:20:58;12.20;;;4.80;;
78312;SDS011;67568;47.438;21.408;2023-03-20T14:23:41;15.93;;;6.10;;
78312;SDS011;67568;47.438;21.408;2023-03-20T14:26:24;15.93;;;7.55;;
78312;SDS011;67568;47.438;21.408;2023-03-20T14:29:30;14.13;;;7.60;;
78312;SDS011;67568;47.438;21.408;2023-03-20T14:37:38;14.77;;;8.38;;
78312;SDS011;67568;47.438;21.408;2023-03-20T14:40:27;15.00;;;8.77;;
78312;SDS011;67568;47.438;21.408;2023-03-20T14:45:34;15.90;;;8.75;;
78312;SDS011;67568;47.438;21.408;2023-03-20T14:48:04;15.07;;;8.10;;
78312;SDS011;67568;47.438;21.408;2023-03-20T14:50:54;16.63;;;7.82;;
78312;SDS011;67568;47.438;21.408;2023-03-20T14:53:55;14.18;;;7.38;;
78312;SDS011;67568;47.438;21.408;2023-03-20T14:56:32;13.13;;;7.38;;
78312;SDS011;67568;47.438;21.408;2023-03-20T14:59:05;15.57;;;7.78;;
78312;SDS011;67568;47.438;21.408;2023-03-20T15:06:57;15.48;;;8.00;;
78312;SDS011;67568;47.438;21.408;2023-03-20T15:09:30;15.63;;;7.60;;
78312;SDS011;67568;47.438;21.408;2023-03-20T15:12:00;18.25;;;8.45;;
78312;SDS011;67568;47.438;21.408;2023-03-20T15:14:30;20.07;;;8.50;;
78312;SDS011;67568;47.438;21.408;2023-03-20T15:17:01;15.40;;;8.23;;
78312;SDS011;67568;47.438;21.408;2023-03-20T15:19:29;15.70;;;8.63;;
78312;SDS011;67568;47.438;21.408;2023-03-20T15:21:56;16.45;;;8.63;;
78312;SDS011;67568;47.438;21.408;2023-03-20T15:24:24;17.25;;;8.25;;
78312;SDS011;67568;47.438;21.408;2023-03-20T15:26:55;16.57;;;8.33;;
78312;SDS011;67568;47.438;21.408;2023-03-20T15:29:24;16.98;;;9.23;;
78312;SDS011;67568;47.438;21.408;2023-03-20T15:31:55;18.00;;;9.15;;
78312;SDS011;67568;47.438;21.408;2023-03-20T15:34:38;22.27;;;9.43;;
78312;SDS011;67568;47.438;21.408;2023-03-20T15:37:08;18.00;;;9.73;;
78312;SDS011;67568;47.438;21.408;2023-03-20T15:39:47;18.93;;;8.80;;
78312;SDS011;67568;47.438;21.408;2023-03-20T15:42:15;22.27;;;9.35;;
78312;SDS011;67568;47.438;21.408;2023-03-20T15:44:45;14.75;;;8.23;;
78312;SDS011;67568;47.438;21.408;2023-03-20T15:47:17;14.88;;;9.07;;
78312;SDS011;67568;47.438;21.408;2023-03-20T15:49:50;15.48;;;9.68;;
78312;SDS011;67568;47.438;21.408;2023-03-20T15:52:33;16.27;;;9.57;;
78312;SDS011;67568;47.438;21.408;2023-03-20T15:55:11;18.35;;;9.43;;
78312;SDS011;67568;47.438;21.408;2023-03-20T15:57:42;15.02;;;9.38;;
78312;SDS011;67568;47.438;21.408;2023-03-20T16:00:20;19.20;;;10.43;;
78312;SDS011;67568;47.438;21.408;2023-03-20T16:02:55;18.05;;;10.10;;
78312;SDS011;67568;47.438;21.408;2023-03-20T16:05:25;17.60;;;9.70;;
78312;SDS011;67568;47.438;21.408;2023-03-20T16:07:54;18.92;;;9.63;;
78312;SDS011;67568;47.438;21.408;2023-03-20T16:10:28;18.90;;;9.18;;
78312;SDS011;67568;47.438;21.408;2023-03-20T16:12:57;15.32;;;8.45;;
78312;SDS011;67568;47.438;21.408;2023-03-20T16:15:24;15.10;;;9.23;;
78312;SDS011;67568;47.438;21.408;2023-03-20T16:17:54;17.60;;;9.60;;
78312;SDS011;67568;47.438;21.408;2023-03-20T16:20:22;17.85;;;9.68;;
78312;SDS011;67568;47.438;21.408;2023-03-20T16:22:54;14.93;;;8.45;;
78312;SDS011;67568;47.438;21.408;2023-03-20T16:25:26;13.82;;;8.40;;
78312;SDS011;67568;47.438;21.408;2023-03-20T16:27:53;21.60;;;11.75;;
78312;SDS011;67568;47.438;21.408;2023-03-20T16:30:24;20.97;;;11.20;;
78312;SDS011;67568;47.438;21.408;2023-03-20T16:33:05;20.65;;;10.93;;
78312;SDS011;67568;47.438;21.408;2023-03-20T16:35:38;18.20;;;10.43;;
78312;SDS011;67568;47.438;21.408;2023-03-20T16:38:16;18.02;;;10.75;;
78312;SDS011;67568;47.438;21.408;2023-03-20T16:40:52;19.00;;;10.88;;
78312;SDS011;67568;47.438;21.408;2023-03-20T16:43:30;17.37;;;10.93;;
78312;SDS011;67568;47.438;21.408;2023-03-20T16:45:58;16.35;;;10.43;;
78312;SDS011;67568;47.438;21.408;2023-03-20T16:48:32;19.02;;;12.05;;
78312;SDS011;67568;47.438;21.408;2023-03-20T16:51:21;18.67;;;11.40;;
78312;SDS011;67568;47.438;21.408;2023-03-20T16:53:57;18.30;;;11.13;;
78312;SDS011;67568;47.438;21.408;2023-03-20T16:59:04;22.58;;;11.63;;